createdAt,value
2022-10-24T00:00:51.933Z,97705.84
2022-10-24T00:03:18.437Z,97703.97
2022-10-24T00:05:45.396Z,97694.91
2022-10-24T00:08:11.933Z,97699.44
2022-10-24T00:10:42.496Z,97702.91
2022-10-24T00:13:08.942Z,97699.19
2022-10-24T00:15:35.391Z,97695.69
2022-10-24T00:18:02.089Z,97706.34
2022-10-24T00:20:28.535Z,97697.84
2022-10-24T00:22:55.080Z,97706.66
2022-10-24T00:25:21.523Z,97702.09
2022-10-24T00:27:47.992Z,97697.06
2022-10-24T00:30:14.456Z,97702.69
2022-10-24T00:32:41.090Z,97703.75
2022-10-24T00:35:07.969Z,97705.91
2022-10-24T00:37:35.271Z,97709.66
2022-10-24T00:40:02.382Z,97708.56
2022-10-24T00:42:28.892Z,97720.84
2022-10-24T00:44:55.686Z,97721.66
2022-10-24T00:47:24.681Z,97719.28
2022-10-24T00:50:12.302Z,97713.94
2022-10-24T00:52:45.926Z,97713.94
2022-10-24T00:55:12.845Z,97696.13
2022-10-24T00:57:48.190Z,97700.06
2022-10-24T01:00:17.462Z,97686.00
2022-10-24T01:02:44.183Z,97691.28
2022-10-24T01:05:10.790Z,97698.22
2022-10-24T01:08:14.838Z,97693.97
2022-10-24T01:10:57.760Z,97690.75
2022-10-24T01:14:06.193Z,97692.63
2022-10-24T01:16:49.106Z,97684.88
2022-10-24T01:19:26.704Z,97684.63
2022-10-24T01:21:55.067Z,97683.84
2022-10-24T01:24:59.193Z,97689.66
2022-10-24T01:27:51.365Z,97680.88
2022-10-24T01:30:17.887Z,97668.63
2022-10-24T01:33:04.586Z,97680.88
2022-10-24T01:35:58.017Z,97681.66
2022-10-24T01:38:26.664Z,97672.09
2022-10-24T01:40:57.818Z,97686.22
2022-10-24T01:43:34.670Z,97674.47
2022-10-24T01:46:08.041Z,97667.25
2022-10-24T01:48:37.690Z,97667.56
2022-10-24T01:51:04.265Z,97666.75
2022-10-24T01:53:30.751Z,97654.22
2022-10-24T01:55:57.280Z,97648.91
2022-10-24T01:58:23.766Z,97642.00
2022-10-24T02:00:51.335Z,97636.13
2022-10-24T02:03:34.519Z,97636.66
2022-10-24T02:06:04.250Z,97633.19
2022-10-24T02:08:33.992Z,97637.78
2022-10-24T02:11:02.078Z,97645.72
2022-10-24T02:14:00.031Z,97642.00
2022-10-24T02:16:26.500Z,97639.56
2022-10-24T02:18:53.616Z,97645.72
2022-10-24T02:21:50.960Z,97635.34
2022-10-24T02:24:23.630Z,97646.28
2022-10-24T02:27:10.438Z,97638.28
2022-10-24T02:29:41.335Z,97624.97
2022-10-24T02:32:09.746Z,97622.59
2022-10-24T02:34:36.549Z,97627.63
2022-10-24T02:37:03.134Z,97614.31
2022-10-24T02:39:29.844Z,97621.50
2022-10-24T02:41:56.302Z,97621.56
2022-10-24T02:44:22.789Z,97610.91
2022-10-24T02:46:49.295Z,97619.44
2022-10-24T02:49:19.598Z,97622.84
2022-10-24T02:51:46.241Z,97615.94
2022-10-24T02:54:12.729Z,97614.84
2022-10-24T02:56:41.407Z,97603.16
2022-10-24T03:01:39.333Z,97605.28
2022-10-24T03:04:06.211Z,97600.75
2022-10-24T03:06:32.957Z,97606.88
2022-10-24T03:08:59.847Z,97609.53
2022-10-24T03:11:26.327Z,97597.28
2022-10-24T03:13:52.771Z,97594.63
2022-10-24T03:16:19.253Z,97597.00
2022-10-24T03:18:45.702Z,97610.31
2022-10-24T03:21:12.147Z,97609.03
2022-10-24T03:23:39.748Z,97614.34
2022-10-24T03:26:06.343Z,97611.97
2022-10-24T03:28:32.793Z,97610.09
2022-10-24T03:30:59.237Z,97610.59
2022-10-24T03:33:25.723Z,97605.81
2022-10-24T03:35:53.499Z,97605.00
2022-10-24T03:38:20.539Z,97595.16
2022-10-24T03:40:46.990Z,97601.53
2022-10-24T03:43:13.477Z,97599.41
2022-10-24T03:45:40.216Z,97591.41
2022-10-24T03:48:06.800Z,97597.53
2022-10-24T03:50:33.421Z,97596.44
2022-10-24T03:53:00.102Z,97604.16
2022-10-24T03:55:27.057Z,97599.59
2022-10-24T03:57:53.878Z,97599.34
2022-10-24T04:00:20.732Z,97598.75
2022-10-24T04:02:47.589Z,97600.63
2022-10-24T04:05:14.033Z,97584.66
2022-10-24T04:07:40.534Z,97593.72
2022-10-24T04:10:07.213Z,97587.59
2022-10-24T04:12:34.206Z,97584.16
2022-10-24T04:15:03.992Z,97582.56
2022-10-24T04:17:32.278Z,97580.69
2022-10-24T04:19:59.065Z,97578.28
2022-10-24T04:22:25.542Z,97583.63
2022-10-24T04:24:51.999Z,97587.66
2022-10-24T04:27:18.499Z,97589.53
2022-10-24T04:29:44.955Z,97597.00
2022-10-24T04:32:11.722Z,97601.53
2022-10-24T04:34:38.216Z,97607.66
2022-10-24T04:37:04.674Z,97595.41
2022-10-24T04:39:31.109Z,97599.94
2022-10-24T04:41:57.579Z,97594.63
2022-10-24T04:44:24.266Z,97594.63
2022-10-24T04:46:51.564Z,97597.28
2022-10-24T04:49:18.462Z,97593.81
2022-10-24T04:51:44.923Z,97579.44
2022-10-24T04:54:11.414Z,97586.63
2022-10-24T04:56:37.880Z,97583.66
2022-10-24T04:59:04.596Z,97579.97
2022-10-24T05:01:31.096Z,97577.00
2022-10-24T05:03:57.715Z,97572.75
2022-10-24T05:06:24.199Z,97576.72
2022-10-24T05:08:50.660Z,97574.03
2022-10-24T05:11:17.127Z,97580.16
2022-10-24T05:13:43.971Z,97583.63
2022-10-24T05:16:10.435Z,97580.69
2022-10-24T05:18:36.903Z,97583.34
2022-10-24T05:21:03.713Z,97578.03
2022-10-24T05:23:30.154Z,97578.81
2022-10-24T05:25:56.607Z,97575.38
2022-10-24T05:28:23.241Z,97566.56
2022-10-24T05:30:49.688Z,97567.38
2022-10-24T05:33:16.193Z,97564.72
2022-10-24T05:35:42.955Z,97569.25
2022-10-24T05:38:09.408Z,97574.84
2022-10-24T05:40:35.851Z,97578.28
2022-10-24T05:43:02.305Z,97574.84
2022-10-24T05:45:28.793Z,97573.25
2022-10-24T05:47:55.271Z,97577.00
2022-10-24T05:50:21.812Z,97582.63
2022-10-24T05:52:48.327Z,97572.22
2022-10-24T05:55:17.917Z,97581.28
2022-10-24T05:57:45.575Z,97577.84
2022-10-24T06:00:13.470Z,97576.25
2022-10-24T06:02:40.234Z,97579.72
2022-10-24T06:05:07.506Z,97575.19
2022-10-24T06:07:35.170Z,97580.00
2022-10-24T06:10:02.436Z,97580.78
2022-10-24T06:12:28.931Z,97592.78
2022-10-24T06:14:59.462Z,97589.84
2022-10-24T06:17:26.086Z,97585.59
2022-10-24T06:19:52.537Z,97588.25
2022-10-24T06:22:19.501Z,97588.25
2022-10-24T06:24:45.971Z,97585.34
2022-10-24T06:27:12.445Z,97588.78
2022-10-24T06:29:38.902Z,97602.91
2022-10-24T06:32:05.675Z,97599.16
2022-10-24T06:34:32.506Z,97599.94
2022-10-24T06:36:59.069Z,97606.59
2022-10-24T06:39:25.571Z,97605.00
2022-10-24T06:41:52.065Z,97602.84
2022-10-24T06:44:18.523Z,97603.94
2022-10-24T06:46:45.042Z,97597.22
2022-10-24T06:49:12.901Z,97601.22
2022-10-24T06:51:40.111Z,97603.59
2022-10-24T06:54:06.579Z,97599.84
2022-10-24T06:56:33.032Z,97612.88
2022-10-24T06:58:59.528Z,97612.56
2022-10-24T07:01:26.438Z,97605.91
2022-10-24T07:03:56.178Z,97605.31
2022-10-24T07:06:27.179Z,97607.69
2022-10-24T07:08:54.707Z,97628.75
2022-10-24T07:11:21.187Z,97630.00
2022-10-24T07:13:47.907Z,97621.06
2022-10-24T07:16:14.475Z,97626.72
2022-10-24T07:18:41.370Z,97627.56
2022-10-24T07:21:09.676Z,97626.25
2022-10-24T07:23:36.167Z,97639.56
2022-10-24T07:26:04.079Z,97641.19
2022-10-24T07:28:30.663Z,97639.59
2022-10-24T07:30:57.130Z,97646.81
2022-10-24T07:33:23.583Z,97642.81
2022-10-24T07:35:50.059Z,97634.00
2022-10-24T07:38:18.607Z,97634.03
2022-10-24T07:40:45.482Z,97630.88
2022-10-24T07:43:12.366Z,97630.63
2022-10-24T07:45:39.275Z,97633.03
2022-10-24T07:48:09.312Z,97636.97
2022-10-24T07:50:40.779Z,97639.69
2022-10-24T07:53:07.229Z,97634.03
2022-10-24T07:55:33.667Z,97628.16
2022-10-24T07:58:00.113Z,97634.75
2022-10-24T08:00:26.571Z,97630.97
2022-10-24T08:02:53.131Z,97624.03
2022-10-24T08:05:22.921Z,97623.72
2022-10-24T08:08:00.351Z,97626.78
2022-10-24T08:10:37.166Z,97624.81
2022-10-24T08:13:03.791Z,97619.78
2022-10-24T08:15:30.256Z,97613.91
2022-10-24T08:17:56.832Z,97613.41
2022-10-24T08:20:26.135Z,97605.91
2022-10-24T08:22:53.406Z,97616.06
2022-10-24T08:25:21.055Z,97604.28
2022-10-24T08:27:47.552Z,97608.53
2022-10-24T08:30:14.093Z,97615.44
2022-10-24T08:32:40.726Z,97615.19
2022-10-24T08:35:07.843Z,97604.25
2022-10-24T08:40:13.058Z,97611.09
2022-10-24T08:42:39.510Z,97608.63
2022-10-24T08:45:12.088Z,97607.38
2022-10-24T08:47:42.355Z,97603.34
2022-10-24T08:50:13.809Z,97598.31
2022-10-24T08:52:54.283Z,97599.09
2022-10-24T08:55:44.383Z,97597.00
2022-10-24T08:58:18.427Z,97604.19
2022-10-24T09:00:46.350Z,97593.03
2022-10-24T09:03:51.115Z,97598.03
2022-10-24T09:06:23.047Z,97605.28
2022-10-24T09:09:00.983Z,97595.69
2022-10-24T09:11:39.503Z,97608.72
2022-10-24T09:14:12.089Z,97612.44
2022-10-24T09:16:38.549Z,97614.53
2022-10-24T09:19:04.999Z,97616.88
2022-10-24T09:21:31.449Z,97612.09
2022-10-24T09:23:57.931Z,97608.38
2022-10-24T09:26:27.445Z,97612.06
2022-10-24T09:28:55.743Z,97610.41
2022-10-24T09:31:24.491Z,97617.56
2022-10-24T09:33:52.219Z,97622.03
2022-10-24T09:36:19.607Z,97627.44
2022-10-24T09:38:46.801Z,97613.91
2022-10-24T09:41:27.706Z,97625.84
2022-10-24T09:43:56.091Z,97620.28
2022-10-24T09:46:23.067Z,97623.22
2022-10-24T09:49:02.827Z,97632.31
2022-10-24T09:51:34.732Z,97630.19
2022-10-24T09:54:07.354Z,97632.63
2022-10-24T09:56:38.769Z,97633.41
2022-10-24T09:59:17.493Z,97630.06
2022-10-24T10:01:45.601Z,97635.63
2022-10-24T10:04:17.337Z,97622.31
2022-10-24T10:06:50.183Z,97635.34
2022-10-24T10:09:34.913Z,97629.78
2022-10-24T10:12:03.118Z,97631.41
2022-10-24T10:14:29.992Z,97639.41
2022-10-24T10:17:05.036Z,97643.72
2022-10-24T10:19:35.996Z,97643.97
2022-10-24T10:22:21.988Z,97650.13
2022-10-24T10:24:48.476Z,97650.97
2022-10-24T10:27:30.563Z,97652.84
2022-10-24T10:30:12.008Z,97658.69
2022-10-24T10:33:09.591Z,97665.09
2022-10-24T10:36:00.803Z,97658.97
2022-10-24T10:38:53.524Z,97672.28
2022-10-24T10:41:48.673Z,97670.97
2022-10-24T10:44:53.491Z,97672.06
2022-10-24T10:47:35.517Z,97674.72
2022-10-24T10:50:02.954Z,97674.44
2022-10-24T10:52:48.659Z,97671.25
2022-10-24T10:55:20.213Z,97667.81
2022-10-24T10:57:49.694Z,97669.09
2022-10-24T11:00:30.487Z,97670.19
2022-10-24T11:03:00.696Z,97672.56
2022-10-24T11:05:27.036Z,97670.97
2022-10-24T11:08:17.195Z,97675.22
2022-10-24T11:10:54.629Z,97681.63
2022-10-24T11:13:23.897Z,97678.19
2022-10-24T11:15:52.034Z,97687.53
2022-10-24T11:18:22.708Z,97691.00
2022-10-24T11:20:54.368Z,97690.63
2022-10-24T11:23:38.313Z,97694.78
2022-10-24T11:26:24.778Z,97693.66
2022-10-24T11:29:14.956Z,97693.03
2022-10-24T11:31:48.237Z,97704.69
2022-10-24T11:34:19.321Z,97692.38
2022-10-24T11:36:52.068Z,97698.75
2022-10-24T11:39:22.923Z,97695.75
2022-10-24T11:41:56.241Z,97697.66
2022-10-24T11:44:43.604Z,97694.78
2022-10-24T11:47:25.189Z,97699.53
2022-10-24T11:50:12.431Z,97695.28
2022-10-24T11:52:42.197Z,97696.38
2022-10-24T11:55:17.138Z,97696.63
2022-10-24T11:57:45.325Z,97696.63
2022-10-24T12:00:21.047Z,97698.25
2022-10-24T12:03:14.867Z,97690.31
2022-10-24T12:05:47.584Z,97706.50
2022-10-24T12:08:31.082Z,97696.63
2022-10-24T12:11:15.776Z,97706.50
2022-10-24T12:17:22.415Z,97719.84
2022-10-24T12:19:48.867Z,97720.63
2022-10-24T12:22:23.872Z,97710.50
2022-10-24T12:24:50.587Z,97732.91
2022-10-24T12:27:32.855Z,97729.66
2022-10-24T12:30:24.075Z,97733.13
2022-10-24T12:33:26.459Z,97726.44
2022-10-24T12:35:56.341Z,97726.16
2022-10-24T12:38:28.763Z,97721.13
2022-10-24T12:40:59.346Z,97724.56
2022-10-24T12:43:31.476Z,97733.91
2022-10-24T12:46:01.550Z,97724.53
2022-10-24T12:48:32.972Z,97723.72
2022-10-24T12:51:00.428Z,97721.31
2022-10-24T12:53:38.028Z,97715.19
2022-10-24T12:56:10.024Z,97722.09
2022-10-24T12:58:37.666Z,97722.91
2022-10-24T13:01:29.745Z,97728.50
2022-10-24T13:04:25.506Z,97716.78
2022-10-24T13:07:22.473Z,97714.66
2022-10-24T13:10:03.550Z,97715.44
2022-10-24T13:12:45.219Z,97711.47
2022-10-24T13:15:27.054Z,97711.44
2022-10-24T13:18:14.632Z,97706.66
2022-10-24T13:20:43.369Z,97704.00
2022-10-24T13:23:16.222Z,97711.44
2022-10-24T13:25:42.850Z,97712.53
2022-10-24T13:28:24.144Z,97705.84
2022-10-24T13:30:59.730Z,97713.13
2022-10-24T13:33:29.262Z,97702.44
2022-10-24T13:35:57.325Z,97707.53
2022-10-24T13:38:23.802Z,97699.53
2022-10-24T13:40:50.257Z,97699.03
2022-10-24T13:43:19.947Z,97695.75
2022-10-24T13:45:46.317Z,97711.00
2022-10-24T13:48:22.778Z,97705.47
2022-10-24T13:51:18.175Z,97713.47
2022-10-24T13:53:55.028Z,97704.47
2022-10-24T13:56:21.857Z,97706.56
2022-10-24T13:58:49.011Z,97706.06
2022-10-24T14:01:27.346Z,97707.69
2022-10-24T14:03:54.531Z,97711.44
2022-10-24T14:06:25.556Z,97703.44
2022-10-24T14:09:03.902Z,97703.94
2022-10-24T14:11:33.444Z,97701.28
2022-10-24T14:14:04.073Z,97699.94
2022-10-24T14:16:34.489Z,97691.94
2022-10-24T14:19:28.447Z,97703.16
2022-10-24T14:21:56.147Z,97699.13
2022-10-24T14:24:22.725Z,97685.53
2022-10-24T14:26:51.481Z,97695.66
2022-10-24T14:29:23.885Z,97707.63
2022-10-24T14:31:59.093Z,97702.84
2022-10-24T14:34:25.582Z,97712.72
2022-10-24T14:36:52.039Z,97718.06
2022-10-24T14:39:23.725Z,97724.97
2022-10-24T14:41:51.355Z,97719.97
2022-10-24T14:44:18.514Z,97728.50
2022-10-24T14:46:46.033Z,97733.59
2022-10-24T14:49:27.672Z,97753.88
2022-10-24T14:51:58.884Z,97762.66
2022-10-24T14:54:27.362Z,97752.00
2022-10-24T14:56:54.427Z,97759.19
2022-10-24T14:59:26.071Z,97754.66
2022-10-24T15:02:00.773Z,97750.38
2022-10-24T15:04:38.940Z,97761.28
2022-10-24T15:07:24.560Z,97755.06
2022-10-24T15:09:55.960Z,97759.78
2022-10-24T15:12:33.731Z,97761.56
2022-10-24T15:15:23.025Z,97767.91
2022-10-24T15:17:50.969Z,97763.91
2022-10-24T15:20:22.662Z,97758.06
2022-10-24T15:22:50.176Z,97763.41
2022-10-24T15:25:22.523Z,97761.25
2022-10-24T15:27:49.179Z,97760.97
2022-10-24T15:30:21.111Z,97758.56
2022-10-24T15:32:48.182Z,97764.16
2022-10-24T15:35:14.753Z,97759.84
2022-10-24T15:37:41.206Z,97763.06
2022-10-24T15:40:19.154Z,97756.41
2022-10-24T15:42:46.065Z,97762.56
2022-10-24T15:45:13.965Z,97762.53
2022-10-24T15:47:40.418Z,97763.03
2022-10-24T15:50:07.396Z,97769.09
2022-10-24T15:52:33.843Z,97774.72
2022-10-24T15:55:00.450Z,97763.22
2022-10-24T15:57:26.923Z,97767.47
2022-10-24T15:59:53.431Z,97761.28
2022-10-24T16:02:21.350Z,97776.44
2022-10-24T16:04:47.911Z,97774.63
2022-10-24T16:07:14.698Z,97777.84
2022-10-24T16:09:41.799Z,97773.59
2022-10-24T16:12:08.292Z,97789.88
2022-10-24T16:14:35.268Z,97781.09
2022-10-24T16:17:01.755Z,97794.38
2022-10-24T16:19:28.209Z,97793.84
2022-10-24T16:21:58.280Z,97785.84
2022-10-24T16:24:25.938Z,97790.91
2022-10-24T16:26:52.512Z,97788.00
2022-10-24T16:29:18.999Z,97781.00
2022-10-24T16:31:47.082Z,97795.13
2022-10-24T16:34:14.445Z,97786.03
2022-10-24T16:36:40.984Z,97794.84
2022-10-24T16:39:07.850Z,97790.03
2022-10-24T16:41:34.327Z,97787.84
2022-10-24T16:44:00.973Z,97789.44
2022-10-24T16:46:27.599Z,97797.19
2022-10-24T16:48:54.233Z,97797.69
2022-10-24T16:51:22.985Z,97800.09
2022-10-24T16:53:49.442Z,97806.44
2022-10-24T16:56:16.231Z,97816.91
2022-10-24T16:58:42.769Z,97822.00
2022-10-24T17:01:10.964Z,97825.41
2022-10-24T17:03:37.650Z,97832.06
2022-10-24T17:06:04.362Z,97837.41
2022-10-24T17:08:31.977Z,97843.53
2022-10-24T17:10:58.558Z,97849.44
2022-10-24T17:13:25.340Z,97845.41
2022-10-24T17:15:52.047Z,97843.53
2022-10-24T17:18:23.406Z,97833.84
2022-10-24T17:20:50.034Z,97838.16
2022-10-24T17:23:18.184Z,97816.50
2022-10-24T17:25:45.619Z,97821.03
2022-10-24T17:28:13.183Z,97841.84
2022-10-24T17:30:40.165Z,97845.31
2022-10-24T17:33:07.263Z,97840.53
2022-10-24T17:35:33.726Z,97842.06
2022-10-24T17:38:22.099Z,97844.22
2022-10-24T17:40:49.502Z,97847.41
2022-10-24T17:43:24.127Z,97852.47
2022-10-24T17:45:50.766Z,97844.22
2022-10-24T17:48:17.363Z,97848.81
2022-10-24T17:50:44.055Z,97848.81
2022-10-24T17:53:18.139Z,97843.53
2022-10-24T17:55:46.992Z,97850.75
2022-10-24T17:58:14.422Z,97858.53
2022-10-24T18:00:40.953Z,97858.47
2022-10-24T18:03:08.680Z,97858.47
2022-10-24T18:05:37.847Z,97860.34
2022-10-24T18:08:08.465Z,97864.09
2022-10-24T18:10:36.937Z,97864.34
2022-10-24T18:13:03.457Z,97864.16
2022-10-24T18:15:29.895Z,97866.53
2022-10-24T18:17:56.354Z,97868.16
2022-10-24T18:20:22.798Z,97868.41
2022-10-24T18:22:49.568Z,97871.56
2022-10-24T18:25:20.238Z,97873.16
2022-10-24T18:27:49.333Z,97879.03
2022-10-24T18:30:15.857Z,97871.03
2022-10-24T18:32:42.426Z,97883.56
2022-10-24T18:35:09.360Z,97887.31
2022-10-24T18:37:35.889Z,97888.16
2022-10-24T18:40:05.970Z,97882.00
2022-10-24T18:42:49.806Z,97874.28
2022-10-24T18:45:22.333Z,97884.19
2022-10-24T18:47:49.518Z,97884.47
2022-10-24T18:50:17.724Z,97881.00
2022-10-24T18:53:22.228Z,97882.31
2022-10-24T18:55:49.233Z,97881.78
2022-10-24T18:58:17.203Z,97880.19
2022-10-24T19:00:43.974Z,97871.44
2022-10-24T19:03:29.695Z,97877.56
2022-10-24T19:06:17.562Z,97869.25
2022-10-24T19:08:44.322Z,97870.28
2022-10-24T19:11:14.401Z,97877.72
2022-10-24T19:13:41.463Z,97872.59
2022-10-24T19:16:11.448Z,97870.97
2022-10-24T19:18:37.939Z,97881.09
2022-10-24T19:21:05.094Z,97877.78
2022-10-24T19:23:31.620Z,97880.41
2022-10-24T19:25:58.631Z,97879.88
2022-10-24T19:28:25.103Z,97887.56
2022-10-24T19:30:51.571Z,97886.72
2022-10-24T19:33:18.733Z,97889.38
2022-10-24T19:35:47.219Z,97882.19
2022-10-24T19:38:14.910Z,97888.59
2022-10-24T19:40:46.143Z,97885.19
2022-10-24T19:43:13.048Z,97883.59
2022-10-24T19:45:45.738Z,97881.72
2022-10-24T19:48:22.347Z,97880.94
2022-10-24T19:50:49.334Z,97873.78
2022-10-24T19:53:15.892Z,97879.44
2022-10-24T19:55:42.740Z,97872.84
2022-10-24T19:58:11.198Z,97880.63
2022-10-24T20:00:37.851Z,97885.44
2022-10-24T20:03:04.396Z,97885.72
2022-10-24T20:05:31.009Z,97884.41
2022-10-24T20:07:57.494Z,97894.31
2022-10-24T20:10:23.956Z,97893.75
2022-10-24T20:12:50.429Z,97901.28
2022-10-24T20:15:18.932Z,97917.53
2022-10-24T20:17:45.887Z,97913.03
2022-10-24T20:20:12.529Z,97911.66
2022-10-24T20:22:39.084Z,97918.06
2022-10-24T20:25:06.364Z,97918.88
2022-10-24T20:27:32.858Z,97926.88
2022-10-24T20:29:59.401Z,97923.41
2022-10-24T20:32:25.868Z,97918.63
2022-10-24T20:34:52.322Z,97917.31
2022-10-24T20:37:19.132Z,97912.25
2022-10-24T20:39:45.589Z,97913.28
2022-10-24T20:42:12.069Z,97929.53
2022-10-24T20:44:38.739Z,97931.94
2022-10-24T20:47:05.190Z,97935.69
2022-10-24T20:49:32.041Z,97932.22
2022-10-24T20:51:58.821Z,97933.28
2022-10-24T20:54:25.298Z,97930.88
2022-10-24T20:56:51.774Z,97925.09
2022-10-24T20:59:18.225Z,97934.44
2022-10-24T21:01:44.777Z,97933.69
2022-10-24T21:04:12.204Z,97927.84
2022-10-24T21:06:39.851Z,97932.09
2022-10-24T21:09:07.528Z,97942.44
2022-10-24T21:11:34.230Z,97937.88
2022-10-24T21:14:08.080Z,97937.88
2022-10-24T21:16:34.815Z,97943.50
2022-10-24T21:19:01.285Z,97942.44
2022-10-24T21:21:27.758Z,97964.56
2022-10-24T21:24:02.389Z,97963.00
2022-10-24T21:26:32.238Z,97966.44
2022-10-24T21:29:08.661Z,97965.66
2022-10-24T21:31:41.233Z,97968.09
2022-10-24T21:34:07.735Z,97972.63
2022-10-24T21:36:34.192Z,97964.09
2022-10-24T21:39:00.963Z,97969.44
2022-10-24T21:41:27.697Z,97965.44
2022-10-24T21:43:54.757Z,97957.97
2022-10-24T21:46:22.388Z,97961.72
2022-10-24T21:48:49.307Z,97965.72
2022-10-24T21:51:20.442Z,97962.78
2022-10-24T21:53:53.973Z,97966.25
2022-10-24T21:56:22.041Z,97957.97
2022-10-24T21:58:53.213Z,97968.94
2022-10-24T22:01:20.614Z,97964.38
2022-10-24T22:03:47.464Z,97966.78
2022-10-24T22:06:17.302Z,97965.69
2022-10-24T22:08:44.128Z,97972.06
2022-10-24T22:11:13.149Z,97971.28
2022-10-24T22:13:39.853Z,97975.25
2022-10-24T22:16:07.029Z,97985.38
2022-10-24T22:18:33.599Z,97985.38
2022-10-24T22:21:00.107Z,97986.78
2022-10-24T22:23:26.577Z,97991.31
2022-10-24T22:25:53.077Z,97994.28
2022-10-24T22:28:19.565Z,98004.16
2022-10-24T22:30:46.318Z,98009.78
2022-10-24T22:33:18.001Z,98005.50
2022-10-24T22:35:46.397Z,98013.00
2022-10-24T22:38:13.036Z,98001.53
2022-10-24T22:40:39.841Z,98011.66
2022-10-24T22:43:06.503Z,98018.88
2022-10-24T22:45:33.312Z,98010.06
2022-10-24T22:48:08.472Z,98004.47
2022-10-24T22:50:38.471Z,98010.09
2022-10-24T22:53:05.536Z,98004.75
2022-10-24T22:55:34.206Z,97998.38
2022-10-24T22:58:00.989Z,98005.28
2022-10-24T23:00:27.647Z,98011.72
2022-10-24T23:02:59.551Z,98009.03
2022-10-24T23:05:30.515Z,98009.28
2022-10-24T23:08:08.232Z,98011.16
2022-10-24T23:10:36.391Z,98013.84
2022-10-24T23:13:03.130Z,98018.38
2022-10-24T23:15:29.797Z,98011.16
2022-10-24T23:17:56.434Z,98015.97
2022-10-24T23:20:36.450Z,98018.63
2022-10-24T23:23:16.752Z,98031.44
2022-10-24T23:25:45.141Z,98029.88
2022-10-24T23:28:13.744Z,98015.72
2022-10-24T23:30:40.371Z,98018.66
2022-10-24T23:33:09.719Z,98022.91
2022-10-24T23:35:36.174Z,98007.19
2022-10-24T23:38:02.927Z,98006.41
2022-10-24T23:40:29.250Z,98007.19
2022-10-24T23:42:55.962Z,98002.16
2022-10-24T23:45:25.109Z,98004.81
2022-10-24T23:48:22.355Z,98007.72
2022-10-24T23:51:30.875Z,98006.69
2022-10-24T23:53:57.570Z,98009.59
2022-10-24T23:56:25.815Z,98006.72
2022-10-24T23:58:52.314Z,98014.72
